createdAt,value
2017-10-26T00:02:17.724Z,7.57
2017-10-26T00:04:45.174Z,6.83
2017-10-26T00:07:12.608Z,7.43
2017-10-26T00:09:40.547Z,7.17
2017-10-26T00:12:07.997Z,7.50
2017-10-26T00:14:35.469Z,6.20
2017-10-26T00:17:02.910Z,6.13
2017-10-26T00:19:30.340Z,6.13
2017-10-26T00:21:57.797Z,6.10
2017-10-26T00:24:25.231Z,6.72
2017-10-26T00:26:52.676Z,6.10
2017-10-26T00:29:20.138Z,6.80
2017-10-26T00:31:47.556Z,6.00
2017-10-26T00:34:15.007Z,5.97
2017-10-26T00:36:42.453Z,5.70
2017-10-26T00:39:09.887Z,5.83
2017-10-26T00:41:37.871Z,5.27
2017-10-26T00:44:06.079Z,6.30
2017-10-26T00:46:33.521Z,5.90
2017-10-26T00:49:01.020Z,5.00
2017-10-26T00:51:29.220Z,5.63
2017-10-26T00:53:56.657Z,5.60
2017-10-26T00:56:24.097Z,6.00
2017-10-26T00:58:51.570Z,4.87
2017-10-26T01:01:19.011Z,5.53
2017-10-26T01:03:46.445Z,6.07
2017-10-26T01:06:13.895Z,5.03
2017-10-26T01:08:42.146Z,4.47
2017-10-26T01:11:09.567Z,4.80
2017-10-26T01:13:37.014Z,6.47
2017-10-26T01:16:04.444Z,5.40
2017-10-26T01:18:31.891Z,5.23
2017-10-26T01:20:59.323Z,6.10
2017-10-26T01:23:26.755Z,6.03
2017-10-26T01:25:54.958Z,5.40
2017-10-26T01:28:22.388Z,6.27
2017-10-26T01:30:49.821Z,5.80
2017-10-26T01:33:17.255Z,6.77
2017-10-26T01:35:44.705Z,7.10
2017-10-26T01:38:12.176Z,5.80
2017-10-26T01:40:39.607Z,6.67
2017-10-26T01:43:07.040Z,5.30
2017-10-26T01:45:34.474Z,6.60
2017-10-26T01:48:01.914Z,7.00
2017-10-26T01:50:29.346Z,5.70
2017-10-26T01:52:57.548Z,7.60
2017-10-26T01:55:25.070Z,7.50
2017-10-26T01:57:52.488Z,6.97
2017-10-26T02:00:19.924Z,7.03
2017-10-26T02:02:48.137Z,8.13
2017-10-26T02:05:15.575Z,8.87
2017-10-26T02:07:43.009Z,8.43
2017-10-26T02:10:10.464Z,8.07
2017-10-26T02:12:38.334Z,8.33
2017-10-26T02:15:05.786Z,9.00
2017-10-26T02:17:33.987Z,9.60
2017-10-26T02:20:01.442Z,10.00
2017-10-26T02:22:28.876Z,10.57
2017-10-26T02:24:56.325Z,10.57
2017-10-26T02:27:23.769Z,11.90
2017-10-26T02:30:17.961Z,12.37
2017-10-26T02:32:45.428Z,12.67
2017-10-26T02:35:12.876Z,13.10
2017-10-26T02:37:40.321Z,12.60
2017-10-26T02:40:07.777Z,13.33
2017-10-26T02:42:35.248Z,13.57
2017-10-26T02:45:03.002Z,13.37
2017-10-26T02:47:30.461Z,12.70
2017-10-26T02:49:57.907Z,16.23
2017-10-26T02:52:25.340Z,14.60
2017-10-26T02:54:52.786Z,14.97
2017-10-26T02:57:20.221Z,16.47
2017-10-26T02:59:47.671Z,16.83
2017-10-26T03:02:15.113Z,16.07
2017-10-26T03:04:42.555Z,16.50
2017-10-26T03:07:09.997Z,16.77
2017-10-26T03:09:37.450Z,15.70
2017-10-26T03:12:04.886Z,16.43
2017-10-26T03:14:32.320Z,16.80
2017-10-26T03:16:59.764Z,15.27
2017-10-26T03:19:27.217Z,13.73
2017-10-26T03:21:54.675Z,15.20
2017-10-26T03:24:22.129Z,15.73
2017-10-26T03:26:49.578Z,15.30
2017-10-26T03:29:17.027Z,14.90
2017-10-26T03:31:44.465Z,13.50
2017-10-26T03:34:11.923Z,13.87
2017-10-26T03:36:39.351Z,13.43
2017-10-26T03:39:06.794Z,13.60
2017-10-26T03:41:34.245Z,13.37
2017-10-26T03:44:01.681Z,14.50
2017-10-26T03:46:29.896Z,13.70
2017-10-26T03:48:57.341Z,15.47
2017-10-26T03:51:24.797Z,12.80
2017-10-26T03:53:52.232Z,12.20
2017-10-26T03:56:19.685Z,12.87
2017-10-26T03:58:47.127Z,14.13
2017-10-26T04:01:14.582Z,13.93
2017-10-26T04:03:42.030Z,13.17
2017-10-26T04:06:09.488Z,12.87
2017-10-26T04:08:37.696Z,13.70
2017-10-26T04:11:05.145Z,13.10
2017-10-26T04:13:32.588Z,13.67
2017-10-26T04:16:00.152Z,16.37
2017-10-26T04:18:27.617Z,15.63
2017-10-26T04:20:55.056Z,15.67
2017-10-26T04:23:22.499Z,23.57
2017-10-26T04:25:50.704Z,34.47
2017-10-26T04:28:18.153Z,41.07
2017-10-26T04:30:45.596Z,39.43
2017-10-26T04:33:13.050Z,34.03
2017-10-26T04:35:40.493Z,30.20
2017-10-26T04:38:07.948Z,25.17
2017-10-26T04:40:35.399Z,21.97
2017-10-26T04:43:02.862Z,20.23
2017-10-26T04:45:30.328Z,19.67
2017-10-26T04:47:57.777Z,20.63
2017-10-26T04:50:25.205Z,19.67
2017-10-26T04:52:53.426Z,20.37
2017-10-26T04:55:20.886Z,20.60
2017-10-26T04:57:48.342Z,20.90
2017-10-26T05:00:17.372Z,21.10
2017-10-26T05:02:44.819Z,28.93
2017-10-26T05:05:12.260Z,22.23
2017-10-26T05:07:39.704Z,19.80
2017-10-26T05:10:07.148Z,19.63
2017-10-26T05:12:34.615Z,19.70
2017-10-26T05:15:02.095Z,19.40
2017-10-26T05:17:30.621Z,19.13
2017-10-26T05:19:58.061Z,15.80
2017-10-26T05:22:26.276Z,18.30
2017-10-26T05:24:53.743Z,17.43
2017-10-26T05:27:21.182Z,18.27
2017-10-26T05:29:48.661Z,16.27
2017-10-26T05:32:16.145Z,19.67
2017-10-26T05:34:43.597Z,17.93
2017-10-26T05:37:11.041Z,19.90
2017-10-26T05:39:38.505Z,21.00
2017-10-26T05:42:05.946Z,20.73
2017-10-26T05:44:33.401Z,22.37
2017-10-26T05:47:00.836Z,22.53
2017-10-26T05:49:28.295Z,21.63
2017-10-26T05:51:55.719Z,23.70
2017-10-26T05:54:23.164Z,21.83
2017-10-26T05:56:50.612Z,24.80
2017-10-26T05:59:18.143Z,23.60
2017-10-26T06:01:45.613Z,22.10
2017-10-26T06:04:13.063Z,25.50
2017-10-26T06:06:40.504Z,33.27
2017-10-26T06:09:08.016Z,47.03
2017-10-26T06:11:35.464Z,26.83
2017-10-26T06:14:02.902Z,24.77
2017-10-26T06:16:30.352Z,26.17
2017-10-26T06:18:58.551Z,27.83
2017-10-26T06:21:26.766Z,30.03
2017-10-26T06:23:54.223Z,28.93
2017-10-26T06:26:21.677Z,29.67
2017-10-26T06:28:49.108Z,31.90
2017-10-26T06:31:16.549Z,29.40
2017-10-26T06:33:43.988Z,29.90
2017-10-26T06:36:11.449Z,31.03
2017-10-26T06:38:38.901Z,29.93
2017-10-26T06:41:06.431Z,31.83
2017-10-26T06:43:33.888Z,32.00
2017-10-26T06:46:01.390Z,31.67
2017-10-26T06:48:28.824Z,29.53
2017-10-26T06:50:56.273Z,29.10
2017-10-26T06:53:23.743Z,28.07
2017-10-26T06:55:51.185Z,29.70
2017-10-26T06:58:18.633Z,29.33
2017-10-26T07:00:46.105Z,29.57
2017-10-26T07:03:14.382Z,32.77
2017-10-26T07:05:41.836Z,31.90
2017-10-26T07:08:09.276Z,36.80
2017-10-26T07:10:36.745Z,32.30
2017-10-26T07:13:04.192Z,25.77
2017-10-26T07:15:31.635Z,26.47
2017-10-26T07:17:59.093Z,25.13
2017-10-26T07:20:26.517Z,39.43
2017-10-26T07:22:53.964Z,99.83
2017-10-26T07:25:21.413Z,25.53
2017-10-26T07:27:48.883Z,23.17
2017-10-26T07:30:16.333Z,26.13
2017-10-26T07:32:44.551Z,27.40
2017-10-26T07:35:12.003Z,26.70
2017-10-26T07:37:40.233Z,24.37
2017-10-26T07:40:07.673Z,22.77
2017-10-26T07:42:35.115Z,23.83
2017-10-26T07:45:02.563Z,23.77
2017-10-26T07:47:30.014Z,21.57
2017-10-26T07:49:57.467Z,21.23
2017-10-26T07:52:25.720Z,21.83
2017-10-26T07:54:53.152Z,19.67
2017-10-26T07:57:20.605Z,32.80
2017-10-26T07:59:48.045Z,26.87
2017-10-26T08:02:15.512Z,23.00
2017-10-26T08:04:42.944Z,23.70
2017-10-26T08:07:10.392Z,22.43
2017-10-26T08:09:38.129Z,21.47
2017-10-26T08:12:05.612Z,24.30
2017-10-26T08:14:33.057Z,27.30
2017-10-26T08:17:01.255Z,25.30
2017-10-26T08:19:28.753Z,24.13
2017-10-26T08:21:56.201Z,20.33
2017-10-26T08:24:23.640Z,22.20
2017-10-26T08:26:51.844Z,21.07
2017-10-26T08:29:19.361Z,19.60
2017-10-26T08:31:47.572Z,19.50
2017-10-26T08:34:15.017Z,18.80
2017-10-26T08:36:42.466Z,18.80
2017-10-26T08:39:09.919Z,16.33
2017-10-26T08:41:37.360Z,17.30
2017-10-26T08:44:04.806Z,16.83
2017-10-26T08:46:32.251Z,16.77
2017-10-26T08:48:59.713Z,13.97
2017-10-26T08:51:27.221Z,13.50
2017-10-26T08:53:54.666Z,11.40
2017-10-26T08:56:22.113Z,12.67
2017-10-26T08:58:50.320Z,12.53
2017-10-26T09:01:17.757Z,10.40
2017-10-26T09:03:45.983Z,10.90
2017-10-26T09:06:13.427Z,9.37
2017-10-26T09:08:40.948Z,8.87
2017-10-26T09:11:08.414Z,8.73
2017-10-26T09:13:35.852Z,8.57
2017-10-26T09:16:03.325Z,8.57
2017-10-26T09:18:31.541Z,9.20
2017-10-26T09:20:58.988Z,7.53
2017-10-26T09:23:26.522Z,11.87
2017-10-26T09:25:53.971Z,9.30
2017-10-26T09:28:21.410Z,9.30
2017-10-26T09:30:48.862Z,9.63
2017-10-26T09:33:21.908Z,8.77
2017-10-26T09:35:49.348Z,9.67
2017-10-26T09:38:16.791Z,9.73
2017-10-26T09:40:44.235Z,9.50
2017-10-26T09:43:11.798Z,10.30
2017-10-26T09:45:39.326Z,9.67
2017-10-26T09:48:06.771Z,11.00
2017-10-26T09:50:34.218Z,10.20
2017-10-26T09:53:01.685Z,10.07
2017-10-26T09:55:29.133Z,10.73
2017-10-26T09:57:56.582Z,11.40
2017-10-26T10:00:24.064Z,11.70
2017-10-26T10:02:51.512Z,11.07
2017-10-26T10:05:18.968Z,12.07
2017-10-26T10:07:46.421Z,11.43
2017-10-26T10:10:13.870Z,12.73
2017-10-26T10:12:41.315Z,12.17
2017-10-26T10:15:08.740Z,15.33
2017-10-26T10:17:36.301Z,17.10
2017-10-26T10:20:03.760Z,19.53
2017-10-26T10:22:31.208Z,20.93
2017-10-26T10:24:58.647Z,17.70
2017-10-26T10:27:26.175Z,14.50
2017-10-26T10:29:53.618Z,13.70
2017-10-26T10:32:21.064Z,11.40
2017-10-26T10:34:48.487Z,13.60
2017-10-26T10:37:15.982Z,8.10
2017-10-26T10:39:43.408Z,9.23
2017-10-26T10:42:10.854Z,10.50
2017-10-26T10:44:38.325Z,8.97
2017-10-26T10:47:06.551Z,8.70
2017-10-26T10:49:33.986Z,8.40
2017-10-26T10:52:01.434Z,9.83
2017-10-26T10:54:28.864Z,9.00
2017-10-26T10:56:56.308Z,12.83
2017-10-26T10:59:29.681Z,9.93
2017-10-26T11:01:57.118Z,9.10
2017-10-26T11:04:24.545Z,9.40
2017-10-26T11:06:51.983Z,9.90
2017-10-26T11:09:19.425Z,10.67
2017-10-26T11:11:46.942Z,12.93
2017-10-26T11:14:14.382Z,10.63
2017-10-26T11:16:42.631Z,7.73
2017-10-26T11:19:10.084Z,8.40
2017-10-26T11:21:37.971Z,9.90
2017-10-26T11:24:05.411Z,10.40
2017-10-26T11:26:32.850Z,10.30
2017-10-26T11:29:00.292Z,6.97
2017-10-26T11:31:27.738Z,10.50
2017-10-26T11:33:55.183Z,9.97
2017-10-26T11:36:32.603Z,9.50
2017-10-26T11:39:00.131Z,11.00
2017-10-26T11:41:27.556Z,8.27
2017-10-26T11:43:55.008Z,10.33
2017-10-26T11:46:22.473Z,13.10
2017-10-26T11:48:49.945Z,7.50
2017-10-26T11:51:18.144Z,7.73
2017-10-26T11:53:45.598Z,9.00
2017-10-26T11:56:13.060Z,8.70
2017-10-26T11:58:40.504Z,7.90
2017-10-26T12:01:07.948Z,8.73
2017-10-26T12:03:35.409Z,10.40
2017-10-26T12:06:02.841Z,7.57
2017-10-26T12:08:30.272Z,8.47
2017-10-26T12:10:57.734Z,8.30
2017-10-26T12:13:25.179Z,9.07
2017-10-26T12:15:52.625Z,7.47
2017-10-26T12:18:20.058Z,7.23
2017-10-26T12:20:47.513Z,7.20
2017-10-26T12:23:15.015Z,7.33
2017-10-26T12:25:42.443Z,7.27
2017-10-26T12:28:09.965Z,11.20
2017-10-26T12:30:37.404Z,9.60
2017-10-26T12:33:04.841Z,9.37
2017-10-26T12:35:33.114Z,8.77
2017-10-26T12:38:00.552Z,6.30
2017-10-26T12:40:27.999Z,4.97
2017-10-26T12:42:56.204Z,4.97
2017-10-26T12:45:23.784Z,6.17
2017-10-26T12:47:51.208Z,7.60
2017-10-26T12:50:18.661Z,7.80
2017-10-26T12:52:46.128Z,10.00
2017-10-26T12:55:14.316Z,6.77
2017-10-26T12:57:41.769Z,4.90
2017-10-26T13:00:09.205Z,5.83
2017-10-26T13:02:36.648Z,6.30
2017-10-26T13:05:04.094Z,6.50
2017-10-26T13:07:31.515Z,7.87
2017-10-26T13:09:58.966Z,6.50
2017-10-26T13:12:26.392Z,6.00
2017-10-26T13:14:53.849Z,6.30
2017-10-26T13:17:21.312Z,7.10
2017-10-26T13:19:48.786Z,4.90
2017-10-26T13:22:16.240Z,5.70
2017-10-26T13:24:43.684Z,5.80
2017-10-26T13:27:11.897Z,5.20
2017-10-26T13:29:39.348Z,5.40
2017-10-26T13:32:06.839Z,5.67
2017-10-26T13:34:35.075Z,5.77
2017-10-26T13:37:02.646Z,5.47
2017-10-26T13:39:30.846Z,6.50
2017-10-26T13:41:58.302Z,5.20
2017-10-26T13:44:25.808Z,5.67
2017-10-26T13:46:53.271Z,6.17
2017-10-26T13:49:20.750Z,5.67
2017-10-26T13:51:48.188Z,6.10
2017-10-26T13:54:15.640Z,5.50
2017-10-26T13:56:43.144Z,5.30
2017-10-26T13:59:10.736Z,6.17
2017-10-26T14:01:38.255Z,4.87
2017-10-26T14:04:05.721Z,6.60
2017-10-26T14:06:33.229Z,6.57
2017-10-26T14:09:00.804Z,12.27
2017-10-26T14:11:28.256Z,14.90
2017-10-26T14:13:55.739Z,13.23
2017-10-26T14:16:23.168Z,14.60
2017-10-26T14:18:50.608Z,14.47
2017-10-26T14:21:18.809Z,13.50
2017-10-26T14:23:47.182Z,16.03
2017-10-26T14:26:14.684Z,16.07
2017-10-26T14:28:42.152Z,14.87
2017-10-26T14:31:11.241Z,17.50
2017-10-26T14:33:38.697Z,15.60
2017-10-26T14:36:06.141Z,19.30
2017-10-26T14:38:33.598Z,17.60
2017-10-26T14:41:01.065Z,19.70
2017-10-26T14:43:29.300Z,19.47
2017-10-26T14:45:56.745Z,20.87
2017-10-26T14:48:24.213Z,20.20
2017-10-26T14:50:51.652Z,18.97
2017-10-26T14:53:19.897Z,19.50
2017-10-26T14:55:47.355Z,19.63
2017-10-26T14:58:15.667Z,19.23
2017-10-26T15:00:43.101Z,20.57
2017-10-26T15:03:10.561Z,19.40
2017-10-26T15:05:38.002Z,19.50
2017-10-26T15:08:05.518Z,19.03
2017-10-26T15:10:33.203Z,18.70
2017-10-26T15:13:00.656Z,19.67
2017-10-26T15:15:28.164Z,18.37
2017-10-26T15:17:56.224Z,20.53
2017-10-26T15:20:23.679Z,20.10
2017-10-26T15:22:51.169Z,21.20
2017-10-26T15:25:19.413Z,21.60
2017-10-26T15:27:46.868Z,20.27
2017-10-26T15:30:14.403Z,20.73
2017-10-26T15:32:41.952Z,22.20
2017-10-26T15:35:09.410Z,19.00
2017-10-26T15:37:37.760Z,19.93
2017-10-26T15:40:05.675Z,19.93
2017-10-26T15:42:33.110Z,19.40
2017-10-26T15:45:00.560Z,20.37
2017-10-26T15:47:28.004Z,18.70
2017-10-26T15:49:55.457Z,20.70
2017-10-26T15:52:22.935Z,18.47
2017-10-26T15:54:50.457Z,18.57
2017-10-26T15:57:17.887Z,21.33
2017-10-26T15:59:45.344Z,20.80
2017-10-26T16:02:12.781Z,21.20
2017-10-26T16:04:40.274Z,19.17
2017-10-26T16:07:07.715Z,20.67
2017-10-26T16:09:35.160Z,19.90
2017-10-26T16:12:02.603Z,20.70
2017-10-26T16:14:30.056Z,18.90
2017-10-26T16:16:57.526Z,20.07
2017-10-26T16:19:24.983Z,21.60
2017-10-26T16:21:52.420Z,20.00
2017-10-26T16:24:19.860Z,21.23
2017-10-26T16:26:47.327Z,21.17
2017-10-26T16:29:14.768Z,20.17
2017-10-26T16:31:43.027Z,20.70
2017-10-26T16:34:11.248Z,22.70
2017-10-26T16:36:38.729Z,19.97
2017-10-26T16:39:06.184Z,21.20
2017-10-26T16:41:34.468Z,20.10
2017-10-26T16:44:01.919Z,20.87
2017-10-26T16:46:29.370Z,19.10
2017-10-26T16:48:56.824Z,20.20
2017-10-26T16:51:25.394Z,19.40
2017-10-26T16:53:52.836Z,26.33
2017-10-26T16:56:20.293Z,26.20
2017-10-26T16:58:47.827Z,21.30
2017-10-26T17:01:15.309Z,19.93
2017-10-26T17:03:42.749Z,19.17
2017-10-26T17:06:10.200Z,22.07
2017-10-26T17:08:38.395Z,20.37
2017-10-26T17:11:05.916Z,19.53
2017-10-26T17:13:34.180Z,19.70
2017-10-26T17:16:01.637Z,21.20
2017-10-26T17:18:29.067Z,18.80
2017-10-26T17:20:56.768Z,20.50
2017-10-26T17:23:24.217Z,22.27
2017-10-26T17:25:51.678Z,21.93
2017-10-26T17:28:19.107Z,22.00
2017-10-26T17:30:46.558Z,20.63
2017-10-26T17:33:14.000Z,21.60
2017-10-26T17:35:41.548Z,20.07
2017-10-26T17:38:08.993Z,20.47
2017-10-26T17:40:36.432Z,20.77
2017-10-26T17:43:03.901Z,22.10
2017-10-26T17:45:31.332Z,23.40
2017-10-26T17:47:59.557Z,22.83
2017-10-26T17:50:27.006Z,23.93
2017-10-26T17:52:55.221Z,23.17
2017-10-26T17:55:22.697Z,24.67
2017-10-26T17:57:50.133Z,24.53
2017-10-26T18:00:17.567Z,24.60
2017-10-26T18:02:45.038Z,24.50
2017-10-26T18:05:12.484Z,23.40
2017-10-26T18:07:39.928Z,22.77
2017-10-26T18:10:07.378Z,20.90
2017-10-26T18:12:34.837Z,20.90
2017-10-26T18:15:03.041Z,23.43
2017-10-26T18:17:30.476Z,24.00
2017-10-26T18:19:57.924Z,21.60
2017-10-26T18:22:25.385Z,22.67
2017-10-26T18:24:52.841Z,23.00
2017-10-26T18:27:20.307Z,23.10
2017-10-26T18:29:48.534Z,21.43
2017-10-26T18:32:15.984Z,21.50
2017-10-26T18:34:43.456Z,21.60
2017-10-26T18:37:11.699Z,22.60
2017-10-26T18:39:39.148Z,23.60
2017-10-26T18:42:06.684Z,30.63
2017-10-26T18:44:34.141Z,33.20
2017-10-26T18:47:02.388Z,33.37
2017-10-26T18:49:29.839Z,23.83
2017-10-26T18:51:58.349Z,22.00
2017-10-26T18:54:25.824Z,21.97
2017-10-26T18:56:53.265Z,22.20
2017-10-26T18:59:21.479Z,21.30
2017-10-26T19:01:49.680Z,21.87
2017-10-26T19:04:17.123Z,21.47
2017-10-26T19:06:44.555Z,20.30
2017-10-26T19:09:12.021Z,20.63
2017-10-26T19:11:39.460Z,20.17
2017-10-26T19:14:06.916Z,21.87
2017-10-26T19:16:34.463Z,21.60
2017-10-26T19:19:01.932Z,20.73
2017-10-26T19:21:29.374Z,22.93
2017-10-26T19:23:57.601Z,22.17
2017-10-26T19:26:25.066Z,22.80
2017-10-26T19:28:53.284Z,20.97
2017-10-26T19:31:20.724Z,23.70
2017-10-26T19:33:48.168Z,23.33
2017-10-26T19:36:15.625Z,21.87
2017-10-26T19:38:43.106Z,22.60
2017-10-26T19:41:11.309Z,22.10
2017-10-26T19:43:38.762Z,23.57
2017-10-26T19:46:06.720Z,26.13
2017-10-26T19:48:34.184Z,22.97
2017-10-26T19:51:01.633Z,24.30
2017-10-26T19:53:29.097Z,27.47
2017-10-26T19:55:57.318Z,23.10
2017-10-26T19:58:24.755Z,24.50
2017-10-26T20:00:52.254Z,22.93
2017-10-26T20:03:19.711Z,22.60
2017-10-26T20:05:47.164Z,25.47
2017-10-26T20:08:14.612Z,23.17
2017-10-26T20:10:42.057Z,22.73
2017-10-26T20:13:09.512Z,22.70
2017-10-26T20:15:36.959Z,21.80
2017-10-26T20:18:04.398Z,20.70
2017-10-26T20:20:31.848Z,22.50
2017-10-26T20:22:59.289Z,25.43
2017-10-26T20:25:26.746Z,21.53
2017-10-26T20:27:54.204Z,21.37
2017-10-26T20:30:22.417Z,22.20
2017-10-26T20:32:50.863Z,22.97
2017-10-26T20:35:18.346Z,22.40
2017-10-26T20:37:45.804Z,26.48
2017-10-26T20:40:13.246Z,23.80
2017-10-26T20:42:40.709Z,23.73
2017-10-26T20:45:08.916Z,21.63
2017-10-26T20:47:36.373Z,22.17
2017-10-26T20:50:09.433Z,21.63
2017-10-26T20:52:42.520Z,24.00
2017-10-26T20:58:17.572Z,23.57
2017-10-26T21:00:51.366Z,24.77
2017-10-26T21:03:25.320Z,25.00
2017-10-26T21:05:58.552Z,24.67
2017-10-26T21:08:32.397Z,25.43
2017-10-26T21:11:05.582Z,25.20
2017-10-26T21:26:57.442Z,21.60
2017-10-26T21:29:25.654Z,24.00
2017-10-26T21:31:53.125Z,22.47
2017-10-26T21:34:20.590Z,25.13
2017-10-26T21:36:48.803Z,22.40
2017-10-26T21:39:16.258Z,23.83
2017-10-26T21:41:43.718Z,21.60
2017-10-26T21:44:11.203Z,22.00
2017-10-26T21:46:38.653Z,22.03
2017-10-26T21:49:06.112Z,21.53
2017-10-26T21:51:33.549Z,20.17
2017-10-26T21:54:01.004Z,21.33
2017-10-26T21:56:28.458Z,23.93
2017-10-26T21:58:55.930Z,24.13
2017-10-26T22:01:24.141Z,21.17
2017-10-26T22:03:51.623Z,20.07
2017-10-26T22:06:19.056Z,21.27
2017-10-26T22:08:46.513Z,18.97
2017-10-26T22:11:13.970Z,19.40
2017-10-26T22:13:42.199Z,18.70
2017-10-26T22:16:09.635Z,18.83
2017-10-26T22:18:37.073Z,16.90
2017-10-26T22:21:04.529Z,18.00
2017-10-26T22:23:31.967Z,18.33
2017-10-26T22:25:59.430Z,19.30
2017-10-26T22:28:28.162Z,17.13
2017-10-26T22:30:55.646Z,16.70
2017-10-26T22:33:23.854Z,18.23
2017-10-26T22:35:51.356Z,16.30
2017-10-26T22:38:19.568Z,17.60
2017-10-26T22:40:47.020Z,15.60
2017-10-26T22:43:14.463Z,15.17
2017-10-26T22:45:41.935Z,16.50
2017-10-26T22:48:10.144Z,15.20
2017-10-26T22:50:37.605Z,16.00
2017-10-26T22:53:05.045Z,14.50
2017-10-26T22:55:32.498Z,14.37
2017-10-26T22:58:00.028Z,14.93
2017-10-26T23:00:27.474Z,15.30
2017-10-26T23:02:54.915Z,14.57
2017-10-26T23:05:23.072Z,14.53
2017-10-26T23:07:50.547Z,13.47
2017-10-26T23:10:18.006Z,13.23
2017-10-26T23:12:46.229Z,15.77
2017-10-26T23:15:13.675Z,14.17
2017-10-26T23:17:41.121Z,14.00
2017-10-26T23:20:08.557Z,13.63
2017-10-26T23:22:36.014Z,15.83
2017-10-26T23:25:03.461Z,13.70
2017-10-26T23:27:30.916Z,13.23
2017-10-26T23:29:59.154Z,12.70
2017-10-26T23:32:26.596Z,12.20
2017-10-26T23:34:54.041Z,12.90
2017-10-26T23:37:21.501Z,12.03
2017-10-26T23:39:48.946Z,13.27
2017-10-26T23:42:16.392Z,12.93
2017-10-26T23:44:43.830Z,12.50
2017-10-26T23:47:11.288Z,12.73
2017-10-26T23:49:39.500Z,11.90
2017-10-26T23:52:06.958Z,11.70
2017-10-26T23:54:34.414Z,11.10
2017-10-26T23:57:01.872Z,11.37
2017-10-26T23:59:30.078Z,12.07
